Time;durP1;ratioP1;P1;durP2;ratioP2;P2;SDS_P1;SDS_P2;PMS_P1;PMS_P2;Temp;Humidity;BMP_temperature;BMP_pressure;BME280_temperature;BME280_humidity;BME280_pressure;Samples;Min_cycle;Max_cycle;Signal;HPM_P1;HPM_P2
2024/03/22 00:01:15;;;;;;;5.37;2.73;;;8.50;99.90;;;;;;493970;241;27938;-73
2024/03/22 00:03:18;;;;;;;3.27;2.97;;;8.60;99.90;;;;;;493958;241;28091;-74
2024/03/22 00:05:18;;;;;;;3.43;3.13;;;8.50;99.90;;;;;;493828;241;28052;-73
2024/03/22 00:07:19;;;;;;;3.50;2.90;;;8.60;99.90;;;;;;494022;241;28040;-73
2024/03/22 00:09:20;;;;;;;4.10;3.20;;;8.50;99.90;;;;;;493930;241;28180;-73
2024/03/22 00:11:21;;;;;;;3.53;3.23;;;8.50;99.90;;;;;;494007;241;28404;-73
2024/03/22 00:13:23;;;;;;;3.10;2.80;;;8.40;99.90;;;;;;493993;241;28503;-73
2024/03/22 00:15:24;;;;;;;3.47;2.80;;;8.40;99.90;;;;;;493956;241;28524;-75
2024/03/22 00:17:25;;;;;;;2.70;2.50;;;8.40;99.90;;;;;;493998;241;28397;-73
2024/03/22 00:19:26;;;;;;;3.20;2.90;;;8.40;99.90;;;;;;493980;241;27618;-73
2024/03/22 00:21:29;;;;;;;3.80;2.83;;;8.40;99.90;;;;;;493992;241;27542;-73
2024/03/22 00:23:30;;;;;;;4.07;3.13;;;8.20;99.90;;;;;;493888;241;27956;-74
2024/03/22 00:25:30;;;;;;;3.03;2.83;;;8.20;99.90;;;;;;493940;241;28128;-75
2024/03/22 00:27:31;;;;;;;2.90;2.70;;;8.20;99.90;;;;;;494006;241;28350;-74
2024/03/22 00:29:33;;;;;;;4.17;3.10;;;8.20;99.90;;;;;;493929;241;27985;-73
2024/03/22 00:31:34;;;;;;;3.37;3.07;;;8.00;99.90;;;;;;493919;241;27855;-73
2024/03/22 00:33:35;;;;;;;3.00;2.77;;;8.00;99.90;;;;;;493941;241;28002;-74
2024/03/22 00:35:36;;;;;;;3.50;3.20;;;7.90;99.90;;;;;;493973;241;27970;-74
2024/03/22 00:37:38;;;;;;;3.23;2.93;;;8.00;99.90;;;;;;493943;241;27472;-73
2024/03/22 00:39:39;;;;;;;3.80;3.10;;;8.00;99.90;;;;;;493873;241;27982;-73
2024/03/22 00:41:40;;;;;;;3.30;3.00;;;8.00;99.90;;;;;;493966;241;27820;-73
2024/03/22 00:43:41;;;;;;;3.80;3.00;;;8.00;99.90;;;;;;493980;241;28477;-73
2024/03/22 00:45:43;;;;;;;3.33;3.07;;;8.00;99.90;;;;;;493992;241;28347;-75
2024/03/22 00:47:44;;;;;;;3.93;3.53;;;8.00;99.90;;;;;;493973;241;28210;-73
2024/03/22 00:49:45;;;;;;;3.73;3.43;;;8.00;99.90;;;;;;493911;241;28493;-73
2024/03/22 00:51:47;;;;;;;3.53;3.10;;;8.00;99.90;;;;;;493994;241;28556;-75
2024/03/22 00:53:48;;;;;;;4.07;3.13;;;8.00;99.90;;;;;;493961;241;27935;-74
2024/03/22 00:55:51;;;;;;;3.83;3.43;;;7.90;99.90;;;;;;493876;241;27502;-73
2024/03/22 00:57:50;;;;;;;4.53;3.40;;;8.00;99.90;;;;;;493811;241;27902;-73
2024/03/22 00:59:51;;;;;;;3.10;2.80;;;8.00;99.90;;;;;;493908;241;27747;-74
2024/03/22 01:01:53;;;;;;;3.70;3.40;;;8.00;99.90;;;;;;494001;241;27882;-74
2024/03/22 01:03:54;;;;;;;4.73;3.13;;;8.00;99.90;;;;;;493961;241;27984;-73
2024/03/22 01:05:57;;;;;;;4.60;2.97;;;8.00;99.90;;;;;;493982;241;28021;-73
2024/03/22 01:07:56;;;;;;;3.43;3.17;;;8.10;99.90;;;;;;493809;237;28027;-73
2024/03/22 01:09:58;;;;;;;3.83;3.53;;;8.10;99.90;;;;;;493909;241;28108;-73
2024/03/22 01:11:59;;;;;;;3.50;3.20;;;8.10;99.90;;;;;;493986;241;28022;-75
2024/03/22 01:14:00;;;;;;;3.47;2.97;;;8.20;99.90;;;;;;493944;237;28295;-73
2024/03/22 01:16:01;;;;;;;3.07;2.80;;;8.10;99.90;;;;;;493891;241;28316;-73
2024/03/22 01:18:03;;;;;;;3.10;2.80;;;8.10;99.90;;;;;;493913;241;29114;-74
2024/03/22 01:20:04;;;;;;;8.80;3.10;;;8.10;99.90;;;;;;493953;241;28476;-73
2024/03/22 01:22:05;;;;;;;3.40;3.10;;;8.20;99.90;;;;;;493957;241;27527;-73
2024/03/22 01:24:06;;;;;;;3.60;3.30;;;8.20;99.90;;;;;;493944;241;27704;-73
2024/03/22 01:26:08;;;;;;;5.43;3.17;;;8.20;99.90;;;;;;493941;241;27960;-73
2024/03/22 01:28:09;;;;;;;3.00;2.80;;;8.20;99.90;;;;;;493951;237;28004;-75
2024/03/22 01:30:11;;;;;;;4.07;3.50;;;8.20;99.90;;;;;;493969;241;28039;-74
2024/03/22 01:32:11;;;;;;;3.40;3.10;;;8.10;99.90;;;;;;493960;241;28180;-73
2024/03/22 01:34:13;;;;;;;3.93;3.10;;;8.10;99.90;;;;;;493920;241;27812;-73
2024/03/22 01:36:14;;;;;;;3.40;3.10;;;8.10;99.90;;;;;;493960;241;28075;-73
2024/03/22 01:38:15;;;;;;;3.40;2.80;;;8.10;99.90;;;;;;493930;241;28211;-73
2024/03/22 01:40:16;;;;;;;4.83;3.93;;;8.10;99.90;;;;;;493950;241;27919;-73
2024/03/22 01:42:18;;;;;;;3.10;2.90;;;8.10;99.90;;;;;;493917;241;27761;-74
2024/03/22 01:44:19;;;;;;;4.27;3.27;;;8.00;99.90;;;;;;493692;241;27954;-73
2024/03/22 01:46:20;;;;;;;3.80;3.00;;;8.00;99.90;;;;;;493974;241;27892;-73
2024/03/22 01:48:21;;;;;;;4.17;3.13;;;8.00;99.90;;;;;;493930;241;28190;-73
2024/03/22 01:50:23;;;;;;;3.53;3.30;;;8.00;99.90;;;;;;493923;237;28012;-72
2024/03/22 01:52:24;;;;;;;4.80;3.80;;;8.00;99.90;;;;;;493908;241;28016;-73
2024/03/22 01:54:25;;;;;;;4.17;3.77;;;7.90;99.90;;;;;;493917;241;28519;-75
2024/03/22 01:56:26;;;;;;;7.50;3.13;;;7.90;99.90;;;;;;493922;237;28478;-74
2024/03/22 01:58:28;;;;;;;4.13;3.70;;;7.90;99.90;;;;;;493839;241;28459;-74
2024/03/22 02:00:30;;;;;;;4.93;3.30;;;7.90;99.90;;;;;;493902;237;28568;-74
2024/03/22 02:02:30;;;;;;;3.90;3.40;;;7.90;99.90;;;;;;493825;241;28534;-74
2024/03/22 02:04:31;;;;;;;3.33;3.03;;;8.00;99.90;;;;;;493939;241;28603;-75
2024/03/22 02:06:33;;;;;;;3.40;3.10;;;8.00;99.90;;;;;;493861;241;28090;-73
2024/03/22 02:08:34;;;;;;;4.73;3.60;;;8.10;99.90;;;;;;493877;241;28056;-74
2024/03/22 02:10:35;;;;;;;3.30;3.00;;;8.10;99.90;;;;;;493879;241;28177;-73
2024/03/22 02:12:36;;;;;;;5.83;3.57;;;8.20;99.90;;;;;;493983;241;27913;-73
2024/03/22 02:14:38;;;;;;;6.40;3.90;;;8.20;99.90;;;;;;493992;241;27966;-74
2024/03/22 02:16:39;;;;;;;4.20;3.80;;;8.20;99.90;;;;;;493928;241;28041;-73
2024/03/22 02:18:40;;;;;;;3.47;3.17;;;8.30;99.90;;;;;;493908;241;27959;-73
2024/03/22 02:20:41;;;;;;;3.50;3.20;;;8.20;99.90;;;;;;493958;241;28026;-73
2024/03/22 02:22:43;;;;;;;4.73;3.37;;;8.20;99.90;;;;;;493974;241;28045;-73
2024/03/22 02:24:44;;;;;;;6.70;3.80;;;8.20;99.90;;;;;;493964;241;27729;-74
2024/03/22 02:26:45;;;;;;;4.17;3.37;;;8.20;99.90;;;;;;493950;241;27849;-73
2024/03/22 02:28:46;;;;;;;3.40;3.20;;;8.20;99.90;;;;;;493923;241;27984;-73
2024/03/22 02:30:48;;;;;;;3.63;3.33;;;8.30;99.90;;;;;;493966;237;28082;-74
2024/03/22 02:32:49;;;;;;;4.07;3.60;;;8.30;99.90;;;;;;493997;241;28158;-73
2024/03/22 02:34:50;;;;;;;3.80;3.30;;;8.30;99.90;;;;;;493947;241;28465;-73
2024/03/22 02:36:51;;;;;;;3.57;3.27;;;8.30;99.90;;;;;;493944;237;28448;-73
2024/03/22 02:38:53;;;;;;;4.50;3.77;;;8.30;99.90;;;;;;493899;241;28458;-73
2024/03/22 02:40:54;;;;;;;3.37;3.10;;;8.30;99.90;;;;;;493984;241;28478;-75
2024/03/22 02:42:55;;;;;;;4.10;3.70;;;8.20;99.90;;;;;;493995;241;27714;-73
2024/03/22 02:44:56;;;;;;;5.03;3.93;;;8.10;99.90;;;;;;493950;241;27863;-74
2024/03/22 02:46:58;;;;;;;3.83;3.43;;;8.10;99.90;;;;;;493921;241;27725;-73
2024/03/22 02:48:59;;;;;;;4.73;4.23;;;8.10;99.90;;;;;;493936;241;28180;-73
2024/03/22 02:51:00;;;;;;;4.90;4.40;;;8.10;99.90;;;;;;493974;241;28002;-75
2024/03/22 02:53:01;;;;;;;4.00;3.60;;;8.10;99.90;;;;;;493994;241;27914;-73
2024/03/22 02:55:03;;;;;;;5.13;3.80;;;8.10;99.90;;;;;;493964;241;27710;-73
2024/03/22 02:57:04;;;;;;;5.37;4.20;;;8.20;99.90;;;;;;493973;238;27926;-73
2024/03/22 02:59:05;;;;;;;4.30;3.90;;;8.10;99.90;;;;;;493979;241;28015;-73
2024/03/22 03:01:07;;;;;;;5.30;4.50;;;8.10;99.90;;;;;;493991;241;28032;-74
2024/03/22 03:03:08;;;;;;;6.80;3.87;;;8.10;99.90;;;;;;494000;241;27748;-74
2024/03/22 03:05:09;;;;;;;4.07;3.73;;;8.10;99.90;;;;;;493950;241;28068;-74
2024/03/22 03:07:10;;;;;;;4.63;3.47;;;8.10;99.90;;;;;;493965;241;28525;-75
2024/03/22 03:09:11;;;;;;;3.57;3.27;;;8.10;99.90;;;;;;493972;241;28412;-73
2024/03/22 03:11:13;;;;;;;5.73;3.87;;;8.10;99.90;;;;;;493945;241;28536;-74
2024/03/22 03:13:14;;;;;;;6.23;3.70;;;8.10;99.90;;;;;;493979;237;28503;-75
2024/03/22 03:15:15;;;;;;;4.27;3.87;;;8.20;99.90;;;;;;493960;241;28110;-73
2024/03/22 03:17:16;;;;;;;4.43;3.90;;;8.20;99.90;;;;;;494006;241;28221;-74
2024/03/22 03:19:18;;;;;;;8.23;4.00;;;8.20;99.90;;;;;;493905;237;27801;-73
2024/03/22 03:21:19;;;;;;;4.20;3.70;;;8.20;99.90;;;;;;493962;241;27735;-73
2024/03/22 03:23:20;;;;;;;5.33;3.80;;;8.20;99.90;;;;;;493978;241;27889;-73
2024/03/22 03:25:22;;;;;;;4.93;3.63;;;8.30;99.90;;;;;;493984;241;27916;-73
2024/03/22 03:27:23;;;;;;;6.30;4.00;;;8.30;99.90;;;;;;493966;241;28118;-73
2024/03/22 03:29:24;;;;;;;4.20;3.80;;;8.30;99.90;;;;;;493932;241;27813;-73
2024/03/22 03:31:25;;;;;;;4.00;3.60;;;8.30;99.90;;;;;;493932;241;28153;-74
2024/03/22 03:33:27;;;;;;;3.60;3.23;;;8.30;99.90;;;;;;494026;241;28320;-75
2024/03/22 03:35:29;;;;;;;5.00;3.70;;;8.30;99.90;;;;;;493965;241;27946;-73
2024/03/22 03:37:29;;;;;;;4.20;3.80;;;8.40;99.90;;;;;;493910;241;27995;-73
2024/03/22 03:39:30;;;;;;;4.90;4.07;;;8.40;99.90;;;;;;493901;237;27917;-73
2024/03/22 03:41:32;;;;;;;4.53;4.00;;;8.40;99.90;;;;;;493949;241;27495;-73
2024/03/22 03:43:33;;;;;;;4.53;4.13;;;8.40;99.90;;;;;;493992;241;28068;-76
2024/03/22 03:45:34;;;;;;;4.70;3.73;;;8.40;99.90;;;;;;493874;241;27903;-72
2024/03/22 03:47:35;;;;;;;5.80;4.67;;;8.40;99.90;;;;;;493901;241;28756;-74
2024/03/22 03:49:37;;;;;;;7.83;4.70;;;8.40;99.90;;;;;;493898;241;28990;-73
2024/03/22 03:51:38;;;;;;;8.77;4.27;;;8.40;99.90;;;;;;493950;241;28178;-74
2024/03/22 03:53:39;;;;;;;4.57;4.17;;;8.30;99.90;;;;;;493947;241;28641;-74
2024/03/22 03:55:40;;;;;;;4.43;3.67;;;8.30;99.90;;;;;;493958;241;28400;-74
2024/03/22 03:57:42;;;;;;;6.23;4.50;;;8.30;99.90;;;;;;493961;241;27985;-73
2024/03/22 03:59:43;;;;;;;5.10;4.27;;;8.30;99.90;;;;;;493918;241;27873;-73
2024/03/22 04:01:44;;;;;;;5.17;4.40;;;8.30;99.90;;;;;;494009;241;27858;-73
2024/03/22 04:03:45;;;;;;;6.73;4.97;;;8.30;99.90;;;;;;493955;241;27743;-74
2024/03/22 04:05:47;;;;;;;5.57;4.87;;;8.40;99.90;;;;;;493958;241;27713;-72
2024/03/22 04:07:48;;;;;;;5.77;4.50;;;8.40;99.90;;;;;;493933;237;28075;-73
2024/03/22 04:09:49;;;;;;;7.80;4.80;;;8.40;99.90;;;;;;493930;237;27890;-76
2024/03/22 04:11:50;;;;;;;7.80;4.93;;;8.40;99.90;;;;;;493965;241;27935;-74
2024/03/22 04:13:52;;;;;;;12.43;4.37;;;8.40;99.90;;;;;;493944;241;27987;-74
2024/03/22 04:15:53;;;;;;;6.13;4.60;;;8.50;99.90;;;;;;493951;241;27934;-73
2024/03/22 04:17:54;;;;;;;6.13;4.57;;;8.50;99.90;;;;;;493929;241;27974;-74
2024/03/22 04:19:55;;;;;;;7.87;5.10;;;8.40;99.90;;;;;;493938;241;28010;-75
2024/03/22 04:21:57;;;;;;;8.63;4.70;;;8.40;99.90;;;;;;493940;241;27834;-74
2024/03/22 04:23:58;;;;;;;4.70;4.07;;;8.40;99.90;;;;;;493939;241;27580;-74
2024/03/22 04:25:59;;;;;;;5.00;4.50;;;8.30;99.90;;;;;;493947;241;28078;-73
2024/03/22 04:28:00;;;;;;;6.47;5.20;;;8.30;99.90;;;;;;494000;241;28408;-73
2024/03/22 04:30:02;;;;;;;8.90;4.73;;;8.30;99.90;;;;;;493953;241;28512;-74
2024/03/22 04:32:03;;;;;;;7.73;5.40;;;8.30;99.90;;;;;;493985;237;28305;-73
2024/03/22 04:34:07;;;;;;;6.93;5.10;;;8.30;99.90;;;;;;493939;237;28107;-74
2024/03/22 04:36:05;;;;;;;7.73;4.57;;;8.30;99.90;;;;;;493775;241;28370;-75
2024/03/22 04:38:07;;;;;;;5.57;5.03;;;8.30;99.90;;;;;;494029;241;27958;-74
2024/03/22 04:40:09;;;;;;;5.00;4.33;;;8.30;99.90;;;;;;493962;241;27868;-74
2024/03/22 04:42:09;;;;;;;4.87;4.37;;;8.20;99.90;;;;;;493907;241;28030;-74
2024/03/22 04:44:10;;;;;;;5.97;4.23;;;8.20;99.90;;;;;;493946;241;27955;-74
2024/03/22 04:46:12;;;;;;;7.60;4.40;;;8.20;99.90;;;;;;493993;241;28338;-75
2024/03/22 04:48:13;;;;;;;5.80;4.50;;;8.20;99.90;;;;;;493939;241;27969;-74
2024/03/22 04:50:14;;;;;;;7.73;4.43;;;8.20;99.90;;;;;;493975;241;27940;-74
2024/03/22 04:52:15;;;;;;;7.20;4.37;;;8.20;99.90;;;;;;493967;241;27997;-74
2024/03/22 04:54:17;;;;;;;5.37;4.07;;;8.20;99.90;;;;;;493923;241;28516;-73
2024/03/22 04:56:18;;;;;;;5.70;4.23;;;8.20;99.90;;;;;;493970;241;28580;-75
2024/03/22 04:58:19;;;;;;;4.50;4.07;;;8.20;99.90;;;;;;493946;241;27711;-73
2024/03/22 05:00:20;;;;;;;4.30;3.90;;;8.20;99.90;;;;;;493977;241;28073;-73
2024/03/22 05:02:22;;;;;;;5.23;3.63;;;8.20;99.90;;;;;;493944;241;28038;-73
2024/03/22 05:04:23;;;;;;;3.97;3.60;;;8.20;99.90;;;;;;493972;241;27925;-73
2024/03/22 05:06:24;;;;;;;5.43;3.93;;;8.20;99.90;;;;;;493978;241;27967;-75
2024/03/22 05:08:25;;;;;;;8.43;5.27;;;8.20;99.90;;;;;;493920;237;28038;-73
2024/03/22 05:10:27;;;;;;;4.90;4.40;;;8.30;99.90;;;;;;493976;241;28064;-74
2024/03/22 05:12:28;;;;;;;5.10;4.60;;;8.30;99.90;;;;;;493947;241;28120;-73
2024/03/22 05:14:29;;;;;;;5.90;3.90;;;8.30;99.90;;;;;;493997;241;27802;-73
2024/03/22 05:16:30;;;;;;;4.80;3.90;;;8.30;99.90;;;;;;494014;241;27977;-74
2024/03/22 05:18:32;;;;;;;5.20;4.70;;;8.20;99.90;;;;;;493936;241;27610;-73
2024/03/22 05:20:33;;;;;;;5.10;4.10;;;8.20;99.90;;;;;;493966;241;27973;-73
2024/03/22 05:22:34;;;;;;;6.40;4.50;;;8.20;99.90;;;;;;493984;241;27992;-73
2024/03/22 05:24:35;;;;;;;5.07;4.37;;;8.20;99.90;;;;;;493969;241;28422;-74
2024/03/22 05:26:37;;;;;;;8.03;4.33;;;8.20;99.90;;;;;;493971;241;28461;-74
2024/03/22 05:28:38;;;;;;;7.90;4.73;;;8.20;99.90;;;;;;493910;241;28507;-73
2024/03/22 05:30:39;;;;;;;9.60;4.80;;;8.10;99.90;;;;;;493927;241;28733;-74
2024/03/22 05:32:40;;;;;;;4.97;4.50;;;8.10;99.90;;;;;;493983;241;28453;-75
2024/03/22 05:34:42;;;;;;;7.10;4.80;;;8.10;99.90;;;;;;493978;241;27831;-73
2024/03/22 05:36:43;;;;;;;5.07;4.50;;;8.00;99.90;;;;;;493866;241;27597;-74
2024/03/22 05:38:44;;;;;;;5.30;4.20;;;8.10;99.90;;;;;;493893;241;27911;-73
2024/03/22 05:40:47;;;;;;;4.47;4.07;;;8.10;99.90;;;;;;493962;241;27972;-74
2024/03/22 05:42:47;;;;;;;4.40;4.00;;;8.00;99.90;;;;;;493860;241;27855;-74
2024/03/22 05:44:48;;;;;;;5.53;4.57;;;8.00;99.90;;;;;;493927;241;27680;-73
2024/03/22 05:46:49;;;;;;;4.73;3.97;;;7.90;99.90;;;;;;493912;241;28110;-73
2024/03/22 05:48:52;;;;;;;5.67;4.67;;;8.00;99.90;;;;;;493877;241;28089;-73
2024/03/22 05:50:52;;;;;;;5.90;4.50;;;8.00;99.90;;;;;;493913;241;27816;-73
2024/03/22 05:52:53;;;;;;;5.90;5.30;;;7.90;99.90;;;;;;493948;241;28064;-74
2024/03/22 05:54:55;;;;;;;8.80;4.53;;;7.90;99.90;;;;;;493936;241;27988;-74
2024/03/22 05:56:55;;;;;;;6.10;4.07;;;7.90;99.90;;;;;;493891;241;27985;-73
2024/03/22 05:58:57;;;;;;;8.20;4.60;;;7.80;99.90;;;;;;493937;241;27901;-75
2024/03/22 06:00:58;;;;;;;7.57;4.70;;;7.80;99.90;;;;;;493956;241;27477;-73
2024/03/22 06:02:59;;;;;;;8.20;4.70;;;7.80;99.90;;;;;;493941;241;28367;-74
2024/03/22 06:05:00;;;;;;;4.80;4.07;;;7.90;99.90;;;;;;493912;241;28413;-74
2024/03/22 06:07:04;;;;;;;5.23;4.67;;;8.00;99.90;;;;;;493912;241;28531;-73
2024/03/22 06:09:03;;;;;;;9.87;4.37;;;8.00;99.90;;;;;;493770;241;28154;-75
2024/03/22 06:11:04;;;;;;;8.43;4.90;;;8.10;99.90;;;;;;493959;241;28055;-73
2024/03/22 06:13:05;;;;;;;6.00;4.70;;;8.10;99.90;;;;;;493931;241;28054;-74
2024/03/22 06:15:07;;;;;;;7.00;4.70;;;8.30;99.90;;;;;;493903;241;27679;-73
2024/03/22 06:17:08;;;;;;;9.47;4.60;;;8.50;99.90;;;;;;493936;241;28053;-73
2024/03/22 06:19:09;;;;;;;7.50;4.60;;;8.60;99.90;;;;;;493926;241;27616;-74
2024/03/22 06:21:11;;;;;;;9.70;4.30;;;8.70;99.90;;;;;;493933;241;27549;-73
2024/03/22 06:23:12;;;;;;;9.80;4.83;;;8.80;99.90;;;;;;493916;237;27604;-74
2024/03/22 06:25:13;;;;;;;4.97;4.07;;;8.90;99.90;;;;;;493960;237;27811;-75
2024/03/22 06:27:15;;;;;;;6.33;5.13;;;9.10;99.90;;;;;;493971;237;27832;-73
2024/03/22 06:29:18;;;;;;;5.73;4.13;;;9.20;99.90;;;;;;493911;241;28087;-74
2024/03/22 06:31:17;;;;;;;7.50;4.97;;;9.30;99.90;;;;;;493695;241;27867;-71
2024/03/22 06:33:19;;;;;;;9.40;4.93;;;9.40;99.90;;;;;;493927;241;28473;-73
2024/03/22 06:35:19;;;;;;;5.00;4.47;;;9.40;99.90;;;;;;493778;241;28421;-75
2024/03/22 06:37:20;;;;;;;6.27;4.90;;;9.50;99.90;;;;;;493956;237;28367;-73
2024/03/22 06:39:22;;;;;;;7.80;5.70;;;9.50;99.90;;;;;;493890;241;28440;-74
2024/03/22 06:41:23;;;;;;;8.53;5.90;;;9.60;99.90;;;;;;493919;237;28267;-73
2024/03/22 06:43:24;;;;;;;5.20;4.60;;;9.60;99.90;;;;;;493938;241;27843;-74
2024/03/22 06:45:25;;;;;;;9.03;5.73;;;9.60;99.90;;;;;;494002;241;27861;-75
2024/03/22 06:47:27;;;;;;;5.43;4.37;;;9.60;99.90;;;;;;493930;241;28102;-73
2024/03/22 06:49:28;;;;;;;7.00;5.00;;;9.70;99.90;;;;;;493876;241;27669;-74
2024/03/22 06:51:29;;;;;;;8.00;4.90;;;9.70;99.90;;;;;;493871;241;27967;-73
2024/03/22 06:53:30;;;;;;;4.80;4.20;;;9.80;99.90;;;;;;493896;241;27866;-73
2024/03/22 06:55:32;;;;;;;7.37;5.30;;;9.80;99.90;;;;;;493966;241;27848;-74
2024/03/22 06:57:37;;;;;;;6.40;4.40;;;9.90;99.90;;;;;;493942;241;27957;-73
2024/03/22 06:59:34;;;;;;;8.60;6.00;;;9.90;99.90;;;;;;493627;237;28120;-73
2024/03/22 07:01:35;;;;;;;8.37;5.30;;;10.00;99.90;;;;;;493938;241;27936;-74
2024/03/22 07:03:37;;;;;;;8.30;5.53;;;10.00;99.90;;;;;;493995;241;27994;-73
2024/03/22 07:05:38;;;;;;;6.67;4.33;;;10.10;99.90;;;;;;493976;241;27999;-74
2024/03/22 07:07:39;;;;;;;9.87;5.90;;;10.10;99.90;;;;;;493958;241;28510;-73
2024/03/22 07:09:41;;;;;;;7.17;5.13;;;10.10;99.90;;;;;;493720;241;28489;-74
2024/03/22 07:11:42;;;;;;;8.47;5.00;;;10.20;99.90;;;;;;493995;241;28517;-74
2024/03/22 07:13:43;;;;;;;14.40;7.17;;;10.20;99.90;;;;;;493904;241;28304;-74
2024/03/22 07:15:44;;;;;;;8.93;6.00;;;10.20;99.90;;;;;;493947;241;28083;-74
2024/03/22 07:17:45;;;;;;;9.50;7.20;;;10.20;99.90;;;;;;493916;241;28033;-73
2024/03/22 07:19:47;;;;;;;7.83;5.60;;;10.30;99.90;;;;;;493898;241;28261;-73
2024/03/22 07:21:48;;;;;;;11.23;6.57;;;10.30;99.90;;;;;;493985;241;28337;-75
2024/03/22 07:23:49;;;;;;;12.23;7.00;;;10.40;99.90;;;;;;493956;241;28022;-73
2024/03/22 07:25:50;;;;;;;8.00;5.83;;;10.40;99.90;;;;;;493944;237;27985;-74
2024/03/22 07:27:52;;;;;;;8.13;5.90;;;10.50;99.90;;;;;;493926;241;28172;-73
2024/03/22 07:29:53;;;;;;;9.23;5.90;;;10.50;99.90;;;;;;493920;241;28237;-73
2024/03/22 07:31:54;;;;;;;8.50;5.53;;;10.50;99.90;;;;;;493967;241;28619;-73
2024/03/22 07:33:55;;;;;;;7.17;5.00;;;10.60;99.90;;;;;;493945;241;28727;-73
2024/03/22 07:35:57;;;;;;;7.20;5.00;;;10.60;99.90;;;;;;493926;241;28756;-74
2024/03/22 07:37:58;;;;;;;9.80;5.23;;;10.60;99.90;;;;;;493979;241;28246;-73
2024/03/22 07:39:59;;;;;;;7.90;4.70;;;10.70;99.90;;;;;;493931;241;28216;-72
2024/03/22 07:42:02;;;;;;;7.13;4.53;;;10.80;99.90;;;;;;493962;241;28096;-74
2024/03/22 07:44:02;;;;;;;9.83;5.80;;;10.80;99.90;;;;;;493768;241;28264;-74
2024/03/22 07:46:03;;;;;;;8.67;4.80;;;10.90;99.90;;;;;;493940;237;28111;-74
2024/03/22 07:48:04;;;;;;;11.87;5.00;;;10.90;99.90;;;;;;493974;241;28571;-75
2024/03/22 07:50:05;;;;;;;10.50;6.00;;;11.00;99.90;;;;;;493950;241;28276;-73
2024/03/22 07:52:07;;;;;;;6.77;5.00;;;11.00;99.90;;;;;;493962;241;28936;-74
2024/03/22 07:54:08;;;;;;;8.80;5.60;;;11.00;99.90;;;;;;493916;241;28497;-73
2024/03/22 07:56:09;;;;;;;5.47;4.57;;;11.10;99.90;;;;;;493982;241;28728;-73
2024/03/22 07:58:10;;;;;;;7.17;5.10;;;11.20;99.90;;;;;;493953;241;28995;-74
2024/03/22 08:00:12;;;;;;;6.00;4.50;;;11.20;99.90;;;;;;493935;241;28397;-73
2024/03/22 08:02:13;;;;;;;7.83;5.73;;;11.30;99.90;;;;;;493947;241;28162;-73
2024/03/22 08:04:14;;;;;;;7.40;5.07;;;11.20;99.90;;;;;;493939;241;28401;-73
2024/03/22 08:06:15;;;;;;;7.40;5.47;;;11.20;99.90;;;;;;493969;241;28405;-74
2024/03/22 08:08:18;;;;;;;8.03;5.40;;;;;;;;;;493911;241;28650;-74
2024/03/22 08:10:19;;;;;;;7.17;4.70;;;11.30;99.90;;;;;;493930;237;27883;-73
2024/03/22 08:12:21;;;;;;;4.40;4.00;;;11.30;99.90;;;;;;493920;241;28085;-73
2024/03/22 08:14:22;;;;;;;6.97;4.93;;;11.40;99.90;;;;;;493931;241;28301;-74
2024/03/22 08:16:23;;;;;;;8.40;5.17;;;11.40;99.90;;;;;;493938;241;28507;-74
2024/03/22 08:18:24;;;;;;;6.17;4.67;;;11.40;99.90;;;;;;493875;241;28161;-73
2024/03/22 08:20:25;;;;;;;6.80;5.10;;;11.50;99.90;;;;;;493932;241;28368;-72
2024/03/22 08:22:27;;;;;;;10.27;5.63;;;11.50;99.90;;;;;;493976;237;28789;-74
2024/03/22 08:24:28;;;;;;;8.33;5.27;;;11.50;99.90;;;;;;493988;241;28161;-73
2024/03/22 08:26:29;;;;;;;8.90;5.87;;;11.50;99.90;;;;;;493988;241;28648;-75
2024/03/22 08:28:31;;;;;;;7.73;5.57;;;11.50;99.90;;;;;;493913;241;28969;-73
2024/03/22 08:30:32;;;;;;;7.47;5.47;;;11.50;99.90;;;;;;493926;241;28881;-73
2024/03/22 08:32:33;;;;;;;6.40;4.30;;;11.50;99.90;;;;;;494007;241;28697;-75
2024/03/22 08:34:35;;;;;;;7.13;5.10;;;;;;;;;;493974;241;28215;-74
2024/03/22 08:36:37;;;;;;;7.57;4.93;;;11.60;99.90;;;;;;493984;241;27153;-73
2024/03/22 08:38:38;;;;;;;7.83;5.77;;;11.60;99.90;;;;;;493916;241;28428;-73
2024/03/22 08:40:39;;;;;;;6.93;4.00;;;11.70;99.90;;;;;;493950;241;28535;-74
2024/03/22 08:42:41;;;;;;;6.97;5.30;;;11.70;99.90;;;;;;493942;241;29077;-74
2024/03/22 08:44:43;;;;;;;9.20;5.30;;;;;;;;;;493883;241;28637;-76
2024/03/22 08:46:44;;;;;;;7.97;5.53;;;11.70;99.90;;;;;;493987;241;27037;-73
2024/03/22 08:48:45;;;;;;;6.27;4.70;;;11.80;99.90;;;;;;493924;237;28960;-74
2024/03/22 08:50:47;;;;;;;6.47;5.10;;;11.80;99.90;;;;;;493963;241;28968;-72
2024/03/22 08:52:48;;;;;;;5.97;4.63;;;11.80;99.90;;;;;;493927;241;29009;-74
2024/03/22 08:54:49;;;;;;;5.63;4.40;;;11.80;99.90;;;;;;493981;237;28731;-75
2024/03/22 08:56:50;;;;;;;8.00;4.70;;;11.90;99.90;;;;;;494007;241;28823;-74
2024/03/22 08:58:53;;;;;;;5.67;3.83;;;;;;;;;;493916;241;28349;-73
2024/03/22 09:00:54;;;;;;;6.37;5.10;;;11.90;99.90;;;;;;493959;241;27331;-73
2024/03/22 09:02:55;;;;;;;6.00;3.97;;;12.00;99.90;;;;;;493995;241;29048;-76
2024/03/22 09:04:57;;;;;;;6.63;4.20;;;12.00;99.90;;;;;;493994;237;28311;-73
2024/03/22 09:06:58;;;;;;;6.10;4.03;;;12.00;99.90;;;;;;494000;241;28446;-74
2024/03/22 09:08:59;;;;;;;6.00;3.90;;;12.10;99.90;;;;;;493769;237;28411;-73
2024/03/22 09:11:00;;;;;;;8.77;4.60;;;12.20;99.90;;;;;;493989;241;28833;-73
2024/03/22 09:13:02;;;;;;;6.90;4.53;;;12.20;99.90;;;;;;493838;241;28307;-74
2024/03/22 09:15:03;;;;;;;7.67;4.83;;;12.30;99.90;;;;;;493950;241;28846;-75
2024/03/22 09:17:04;;;;;;;7.23;5.47;;;12.40;99.90;;;;;;493940;241;28968;-74
2024/03/22 09:19:05;;;;;;;7.33;5.20;;;12.60;99.90;;;;;;493914;237;28502;-72
2024/03/22 09:21:08;;;;;;;8.80;6.10;;;12.60;99.90;;;;;;493974;241;28653;-73
2024/03/22 09:23:09;;;;;;;8.60;6.87;;;;;;;;;;493813;241;28645;-73
2024/03/22 09:25:10;;;;;;;9.53;6.37;;;12.80;99.90;;;;;;493932;241;26966;-74
2024/03/22 09:27:11;;;;;;;7.93;6.10;;;12.90;99.90;;;;;;493927;241;28775;-75
2024/03/22 09:29:13;;;;;;;9.73;7.00;;;13.10;99.90;;;;;;493947;241;28640;-73
2024/03/22 09:31:14;;;;;;;11.00;7.00;;;13.10;99.90;;;;;;493969;237;28860;-73
2024/03/22 09:33:15;;;;;;;10.10;7.03;;;13.20;99.90;;;;;;493913;241;28673;-73
2024/03/22 09:35:17;;;;;;;8.63;6.77;;;13.20;99.90;;;;;;493891;241;28230;-73
2024/03/22 09:37:18;;;;;;;7.63;6.10;;;13.30;99.90;;;;;;493974;241;28333;-74
2024/03/22 09:39:19;;;;;;;9.23;6.20;;;13.40;99.90;;;;;;493959;241;28353;-73
2024/03/22 09:41:20;;;;;;;6.70;5.50;;;13.50;99.90;;;;;;493957;241;28243;-73
2024/03/22 09:43:21;;;;;;;7.03;6.03;;;13.60;99.90;;;;;;493939;241;28802;-74
2024/03/22 09:45:23;;;;;;;8.10;6.70;;;13.70;99.90;;;;;;493962;237;28275;-72
2024/03/22 09:47:24;;;;;;;9.07;6.57;;;13.80;99.90;;;;;;493959;237;28249;-74
2024/03/22 09:49:25;;;;;;;10.07;7.20;;;13.80;99.90;;;;;;493889;237;28860;-72
2024/03/22 09:51:27;;;;;;;12.80;7.10;;;13.60;99.90;;;;;;493911;237;29125;-74
2024/03/22 09:53:28;;;;;;;12.23;8.30;;;13.70;99.90;;;;;;493861;241;29635;-73
2024/03/22 09:55:29;;;;;;;11.00;7.30;;;13.70;99.90;;;;;;493898;241;28504;-73
2024/03/22 09:57:30;;;;;;;16.30;8.70;;;13.70;99.90;;;;;;493904;241;28668;-73
2024/03/22 09:59:32;;;;;;;11.83;8.23;;;13.60;99.90;;;;;;493820;241;28289;-73
2024/03/22 10:01:34;;;;;;;9.80;7.10;;;13.50;99.90;;;;;;493873;241;28657;-73
2024/03/22 10:03:34;;;;;;;8.17;6.67;;;13.60;99.90;;;;;;493891;241;28683;-76
2024/03/22 10:05:36;;;;;;;8.20;6.47;;;13.60;99.90;;;;;;493957;241;28290;-73
2024/03/22 10:07:37;;;;;;;11.03;8.07;;;13.70;99.90;;;;;;493793;241;28292;-74
2024/03/22 10:09:38;;;;;;;10.10;6.97;;;13.70;99.90;;;;;;493871;241;28894;-73
2024/03/22 10:11:39;;;;;;;10.00;6.90;;;13.70;99.90;;;;;;493945;241;28411;-73
2024/03/22 10:13:40;;;;;;;13.70;6.90;;;13.70;99.90;;;;;;493951;241;28339;-75
2024/03/22 10:15:42;;;;;;;9.43;6.30;;;13.80;99.90;;;;;;493913;241;28842;-73
2024/03/22 10:17:43;;;;;;;8.13;6.30;;;13.80;99.90;;;;;;493753;241;29043;-74
2024/03/22 10:19:44;;;;;;;9.23;7.13;;;13.90;99.90;;;;;;493915;241;29703;-73
2024/03/22 10:21:45;;;;;;;8.70;6.13;;;13.90;99.90;;;;;;493964;241;28928;-73
2024/03/22 10:23:48;;;;;;;7.70;6.30;;;14.00;99.90;;;;;;493931;241;28574;-75
2024/03/22 10:25:48;;;;;;;7.90;5.43;;;14.10;99.90;;;;;;493821;241;28431;-73
2024/03/22 10:27:49;;;;;;;9.60;6.20;;;14.10;99.90;;;;;;493885;241;28925;-75
2024/03/22 10:29:50;;;;;;;12.70;6.90;;;14.20;99.90;;;;;;493925;241;28986;-75
2024/03/22 10:31:52;;;;;;;8.83;5.80;;;14.10;99.90;;;;;;493957;241;28722;-73
2024/03/22 10:33:53;;;;;;;6.87;5.20;;;14.10;99.90;;;;;;493934;241;28890;-73
2024/03/22 10:35:54;;;;;;;7.83;5.33;;;14.10;99.90;;;;;;493928;241;28358;-73
2024/03/22 10:37:55;;;;;;;7.47;5.10;;;14.10;99.90;;;;;;493960;241;28655;-72